createdAt,value
2018-03-03T00:00:45.337Z,225.50
2018-03-03T00:01:45.361Z,230.40
2018-03-03T00:02:45.388Z,249.50
2018-03-03T00:03:45.412Z,254.20
2018-03-03T00:04:45.435Z,257.00
2018-03-03T00:05:45.461Z,257.40
2018-03-03T00:06:45.491Z,245.10
2018-03-03T00:07:45.511Z,248.80
2018-03-03T00:08:45.538Z,239.40
2018-03-03T00:09:45.560Z,237.30
2018-03-03T00:10:45.584Z,233.90
2018-03-03T00:11:45.609Z,250.30
2018-03-03T00:12:45.633Z,255.90
2018-03-03T00:13:45.659Z,257.80
2018-03-03T00:14:45.683Z,281.00
2018-03-03T00:15:45.707Z,286.70
2018-03-03T00:16:45.732Z,295.00
2018-03-03T00:17:45.756Z,335.00
2018-03-03T00:18:45.781Z,314.00
2018-03-03T00:19:45.806Z,297.70
2018-03-03T00:20:45.831Z,310.30
2018-03-03T00:21:45.858Z,299.50
2018-03-03T00:22:45.880Z,319.70
2018-03-03T00:23:45.904Z,287.00
2018-03-03T00:24:45.928Z,274.20
2018-03-03T00:25:45.956Z,272.70
2018-03-03T00:26:45.978Z,270.50
2018-03-03T00:27:46.003Z,258.90
2018-03-03T00:28:46.027Z,252.80
2018-03-03T00:29:46.051Z,243.80
2018-03-03T00:30:46.079Z,250.90
2018-03-03T00:31:46.102Z,251.90
2018-03-03T00:32:46.125Z,264.20
2018-03-03T00:33:46.150Z,252.40
2018-03-03T00:34:46.177Z,235.30
2018-03-03T00:35:46.198Z,249.20
2018-03-03T00:36:46.222Z,245.50
2018-03-03T00:37:46.247Z,253.10
2018-03-03T00:38:46.271Z,256.80
2018-03-03T00:39:46.295Z,273.80
2018-03-03T00:40:46.320Z,268.70
2018-03-03T00:41:46.345Z,275.60
2018-03-03T00:42:46.369Z,280.30
2018-03-03T00:43:46.393Z,266.60
2018-03-03T00:44:46.416Z,257.80
2018-03-03T00:45:46.442Z,249.30
2018-03-03T00:46:46.467Z,251.60
2018-03-03T00:47:46.491Z,246.20
2018-03-03T00:48:46.514Z,241.40
2018-03-03T00:49:46.538Z,256.40
2018-03-03T00:50:46.563Z,242.80
2018-03-03T00:51:46.587Z,242.70
2018-03-03T00:52:46.611Z,222.00
2018-03-03T00:53:46.636Z,209.50
2018-03-03T00:54:46.659Z,211.70
2018-03-03T00:55:46.685Z,225.30
2018-03-03T00:56:46.708Z,220.30
2018-03-03T00:57:46.733Z,231.00
2018-03-03T00:58:46.757Z,239.30
2018-03-03T00:59:46.783Z,252.40
2018-03-03T01:00:46.806Z,264.20
2018-03-03T01:01:46.831Z,262.90
2018-03-03T01:02:46.856Z,265.90
2018-03-03T01:03:46.881Z,266.70
2018-03-03T01:04:46.905Z,257.70
2018-03-03T01:05:46.929Z,254.90
2018-03-03T01:06:46.953Z,242.80
2018-03-03T01:07:46.979Z,234.80
2018-03-03T01:08:47.002Z,245.30
2018-03-03T01:09:47.026Z,234.20
2018-03-03T01:10:47.051Z,217.40
2018-03-03T01:11:47.076Z,235.50
2018-03-03T01:12:47.101Z,229.90
2018-03-03T01:13:47.126Z,230.10
2018-03-03T01:14:47.151Z,218.60
2018-03-03T01:15:47.174Z,221.50
2018-03-03T01:16:47.198Z,238.30
2018-03-03T01:17:47.222Z,224.80
2018-03-03T01:18:47.248Z,248.60
2018-03-03T01:19:47.275Z,253.40
2018-03-03T01:20:47.313Z,248.40
2018-03-03T01:21:47.321Z,235.40
2018-03-03T01:22:47.346Z,224.50
2018-03-03T01:23:47.373Z,241.30
2018-03-03T01:24:47.393Z,216.30
2018-03-03T01:25:47.426Z,235.30
2018-03-03T01:26:47.444Z,273.70
2018-03-03T01:27:47.468Z,239.50
2018-03-03T01:28:47.492Z,239.70
2018-03-03T01:29:47.518Z,293.30
2018-03-03T01:30:47.543Z,260.00
2018-03-03T01:31:47.567Z,298.90
2018-03-03T01:32:47.589Z,296.30
2018-03-03T01:33:47.616Z,275.10
2018-03-03T01:34:47.640Z,336.90
2018-03-03T01:35:47.665Z,286.80
2018-03-03T01:36:47.692Z,263.10
2018-03-03T01:37:47.713Z,253.20
2018-03-03T01:38:47.739Z,245.30
2018-03-03T01:39:47.762Z,268.70
2018-03-03T01:40:47.794Z,315.00
2018-03-03T01:41:47.811Z,363.30
2018-03-03T01:42:47.836Z,320.60
2018-03-03T01:43:47.860Z,365.50
2018-03-03T01:44:47.883Z,358.70
2018-03-03T01:45:47.911Z,332.50
2018-03-03T01:46:47.979Z,332.70
2018-03-03T01:47:47.959Z,330.60
2018-03-03T01:48:47.984Z,419.70
2018-03-03T01:49:48.008Z,402.80
2018-03-03T01:50:48.045Z,433.10
2018-03-03T01:51:48.058Z,398.50
2018-03-03T01:52:48.081Z,389.60
2018-03-03T01:53:48.106Z,589.90
2018-03-03T01:54:48.131Z,334.40
2018-03-03T01:55:48.156Z,275.00
2018-03-03T01:56:48.181Z,376.80
2018-03-03T01:57:48.203Z,460.20
2018-03-03T01:58:48.230Z,406.00
2018-03-03T01:59:48.255Z,400.20
2018-03-03T02:00:48.279Z,424.10
2018-03-03T02:01:48.304Z,425.60
2018-03-03T02:02:48.329Z,525.60
2018-03-03T02:03:48.353Z,506.50
2018-03-03T02:04:48.378Z,433.40
2018-03-03T02:05:48.403Z,470.50
2018-03-03T02:06:48.426Z,406.30
2018-03-03T02:07:48.457Z,418.00
2018-03-03T02:08:48.475Z,402.40
2018-03-03T02:09:48.501Z,425.40
2018-03-03T02:10:48.526Z,385.60
2018-03-03T02:11:48.551Z,339.90
2018-03-03T02:12:48.576Z,329.20
2018-03-03T02:13:48.599Z,268.70
2018-03-03T02:14:48.629Z,223.30
2018-03-03T02:15:48.651Z,237.60
2018-03-03T02:16:48.675Z,223.50
2018-03-03T02:17:48.701Z,213.60
2018-03-03T02:18:48.725Z,235.30
2018-03-03T02:19:48.750Z,252.30
2018-03-03T02:20:48.774Z,227.60
2018-03-03T02:21:48.799Z,258.40
2018-03-03T02:22:48.823Z,277.50
2018-03-03T02:23:48.849Z,272.00
2018-03-03T02:24:48.873Z,320.50
2018-03-03T02:25:48.898Z,324.50
2018-03-03T02:26:48.924Z,307.60
2018-03-03T02:27:48.949Z,318.50
2018-03-03T02:28:48.973Z,315.40
2018-03-03T02:29:48.998Z,317.10
2018-03-03T02:30:49.023Z,335.20
2018-03-03T02:31:49.048Z,317.20
2018-03-03T02:32:49.071Z,314.10
2018-03-03T02:33:49.099Z,302.70
2018-03-03T02:34:49.121Z,314.90
2018-03-03T02:35:49.147Z,304.60
2018-03-03T02:36:49.172Z,315.60
2018-03-03T02:37:49.195Z,301.90
2018-03-03T02:38:49.219Z,319.40
2018-03-03T02:39:49.245Z,316.60
2018-03-03T02:40:49.269Z,348.20
2018-03-03T02:41:49.294Z,342.90
2018-03-03T02:42:49.320Z,325.20
2018-03-03T02:43:49.343Z,431.10
2018-03-03T02:44:49.366Z,401.60
2018-03-03T02:45:49.393Z,460.40
2018-03-03T02:46:49.417Z,451.00
2018-03-03T02:47:49.447Z,497.60
2018-03-03T02:48:49.464Z,406.80
2018-03-03T02:49:49.489Z,431.10
2018-03-03T02:50:49.514Z,576.00
2018-03-03T02:51:49.539Z,480.70
2018-03-03T02:52:49.562Z,606.50
2018-03-03T02:53:49.587Z,584.30
2018-03-03T02:54:49.611Z,643.00
2018-03-03T02:55:49.647Z,686.70
2018-03-03T02:56:49.659Z,733.60
2018-03-03T02:57:49.687Z,683.20
2018-03-03T02:58:49.707Z,507.30
2018-03-03T02:59:49.733Z,545.50
2018-03-03T03:00:49.756Z,657.00
2018-03-03T03:01:49.780Z,693.00
2018-03-03T03:02:49.804Z,671.30
2018-03-03T03:03:49.827Z,603.50
2018-03-03T03:04:49.853Z,666.20
2018-03-03T03:05:49.876Z,1023.40
2018-03-03T03:06:49.900Z,483.70
2018-03-03T03:07:49.926Z,796.70
2018-03-03T03:08:49.947Z,873.40
2018-03-03T03:09:49.972Z,1041.30
2018-03-03T03:10:49.997Z,681.90
2018-03-03T03:11:50.021Z,511.70
2018-03-03T03:12:50.045Z,715.90
2018-03-03T03:13:50.068Z,597.50
2018-03-03T03:14:50.094Z,593.60
2018-03-03T03:15:50.118Z,637.70
2018-03-03T03:16:50.142Z,748.10
2018-03-03T03:17:50.166Z,543.20
2018-03-03T03:18:50.190Z,601.20
2018-03-03T03:19:50.215Z,700.20
2018-03-03T03:20:50.237Z,697.00
2018-03-03T03:21:50.262Z,550.70
2018-03-03T03:22:50.288Z,548.00
2018-03-03T03:23:50.314Z,485.40
2018-03-03T03:24:50.336Z,488.80
2018-03-03T03:25:50.360Z,566.40
2018-03-03T03:26:50.383Z,736.10
2018-03-03T03:27:50.409Z,804.30
2018-03-03T03:28:50.433Z,756.80
2018-03-03T03:29:50.456Z,883.50
2018-03-03T03:30:50.495Z,900.60
2018-03-03T03:31:50.504Z,1109.10
2018-03-03T03:32:50.528Z,945.10
2018-03-03T03:33:50.553Z,1143.50
2018-03-03T03:34:50.578Z,670.90
2018-03-03T03:35:50.602Z,943.40
2018-03-03T03:36:50.624Z,1559.10
2018-03-03T03:37:50.650Z,1009.30
2018-03-03T03:38:50.688Z,886.50
2018-03-03T03:39:50.698Z,838.90
2018-03-03T03:40:50.723Z,1239.10
2018-03-03T03:41:50.746Z,1190.20
2018-03-03T03:42:50.770Z,840.20
2018-03-03T03:43:50.793Z,1274.50
2018-03-03T03:44:50.817Z,792.80
2018-03-03T03:45:50.842Z,1211.70
2018-03-03T03:46:50.866Z,1221.30
2018-03-03T03:47:50.891Z,1228.10
2018-03-03T03:48:50.914Z,1072.40
2018-03-03T03:49:50.938Z,1287.60
2018-03-03T03:50:50.962Z,1489.10
2018-03-03T03:51:50.988Z,1157.60
2018-03-03T03:52:51.011Z,1201.40
2018-03-03T03:53:56.692Z,1247.20
2018-03-03T03:54:51.059Z,941.00
2018-03-03T03:55:51.083Z,853.60
2018-03-03T03:56:51.108Z,794.40
2018-03-03T03:57:51.132Z,742.50
2018-03-03T03:58:51.157Z,636.40
2018-03-03T03:59:51.181Z,535.90
2018-03-03T04:00:51.206Z,485.60
2018-03-03T04:01:51.229Z,520.40
2018-03-03T04:02:51.253Z,447.00
2018-03-03T04:03:51.278Z,568.20
2018-03-03T04:04:51.301Z,400.60
2018-03-03T04:05:51.327Z,478.30
2018-03-03T04:06:51.351Z,622.20
2018-03-03T04:07:51.376Z,541.40
2018-03-03T04:08:51.398Z,506.90
2018-03-03T04:09:51.423Z,621.20
2018-03-03T04:10:51.447Z,598.40
2018-03-03T04:11:51.472Z,611.30
2018-03-03T04:12:51.497Z,472.70
2018-03-03T04:13:51.519Z,466.30
2018-03-03T04:14:51.544Z,419.50
2018-03-03T04:15:51.569Z,434.30
2018-03-03T04:16:51.592Z,405.30
2018-03-03T04:17:51.620Z,450.10
2018-03-03T04:18:51.643Z,448.80
2018-03-03T04:19:51.670Z,410.00
2018-03-03T04:20:51.690Z,406.90
2018-03-03T04:21:51.713Z,353.80
2018-03-03T04:22:51.739Z,533.90
2018-03-03T04:23:51.764Z,397.20
2018-03-03T04:24:51.788Z,363.10
2018-03-03T04:25:51.813Z,287.30
2018-03-03T04:26:51.836Z,374.50
2018-03-03T04:27:51.861Z,445.70
2018-03-03T04:28:51.884Z,594.70
2018-03-03T04:29:51.909Z,406.40
2018-03-03T04:30:51.934Z,276.80
2018-03-03T04:31:51.960Z,348.40
2018-03-03T04:32:51.982Z,305.10
2018-03-03T04:33:52.012Z,294.70
2018-03-03T04:34:52.032Z,391.40
2018-03-03T04:35:52.061Z,364.20
2018-03-03T04:36:52.080Z,589.40
2018-03-03T04:37:52.104Z,357.80
2018-03-03T04:38:52.136Z,542.30
2018-03-03T04:39:52.155Z,473.70
2018-03-03T04:40:52.179Z,413.60
2018-03-03T04:41:52.202Z,472.80
2018-03-03T04:42:52.226Z,575.40
2018-03-03T04:43:52.258Z,506.60
2018-03-03T04:44:52.276Z,570.60
2018-03-03T04:45:52.300Z,441.20
2018-03-03T04:46:52.326Z,395.80
2018-03-03T04:47:52.349Z,419.40
2018-03-03T04:48:52.372Z,567.10
2018-03-03T04:49:52.401Z,453.30
2018-03-03T04:50:52.422Z,416.50
2018-03-03T04:51:52.447Z,460.70
2018-03-03T04:52:52.473Z,577.50
2018-03-03T04:53:52.494Z,430.10
2018-03-03T04:54:52.520Z,402.60
2018-03-03T04:55:52.543Z,440.50
2018-03-03T04:56:52.568Z,478.90
2018-03-03T04:57:52.592Z,512.90
2018-03-03T04:58:52.617Z,378.00
2018-03-03T04:59:52.642Z,526.60
2018-03-03T05:00:52.665Z,430.90
2018-03-03T05:01:52.690Z,456.10
2018-03-03T05:02:52.714Z,468.20
2018-03-03T05:03:52.738Z,480.60
2018-03-03T05:04:52.763Z,469.80
2018-03-03T05:05:52.787Z,450.90
2018-03-03T05:06:52.810Z,510.40
2018-03-03T05:07:52.837Z,473.40
2018-03-03T05:08:52.860Z,494.40
2018-03-03T05:09:52.886Z,426.90
2018-03-03T05:10:52.910Z,461.20
2018-03-03T05:11:52.934Z,446.80
2018-03-03T05:12:52.956Z,341.20
2018-03-03T05:13:52.981Z,447.20
2018-03-03T05:14:53.005Z,399.90
2018-03-03T05:15:53.031Z,459.10
2018-03-03T05:16:53.055Z,492.80
2018-03-03T05:17:53.079Z,483.90
2018-03-03T05:18:53.104Z,364.70
2018-03-03T05:19:53.128Z,379.30
2018-03-03T05:20:53.152Z,341.10
2018-03-03T05:21:53.176Z,296.80
2018-03-03T05:22:53.199Z,347.40
2018-03-03T05:23:53.227Z,396.30
2018-03-03T05:24:53.251Z,362.30
2018-03-03T05:25:53.274Z,322.20
2018-03-03T05:26:53.300Z,273.90
2018-03-03T05:27:53.323Z,295.00
2018-03-03T05:28:53.347Z,318.60
2018-03-03T05:29:53.373Z,446.50
2018-03-03T05:30:53.397Z,303.20
2018-03-03T05:31:53.421Z,451.20
2018-03-03T05:32:53.443Z,371.90
2018-03-03T05:33:53.469Z,510.90
2018-03-03T05:34:53.493Z,406.40
2018-03-03T05:35:53.519Z,420.20
2018-03-03T05:36:53.542Z,307.80
2018-03-03T05:37:53.567Z,306.60
2018-03-03T05:38:53.590Z,316.70
2018-03-03T05:39:53.615Z,260.50
2018-03-03T05:40:53.639Z,234.40
2018-03-03T05:41:53.664Z,213.30
2018-03-03T05:42:53.689Z,219.80
2018-03-03T05:43:53.717Z,201.90
2018-03-03T05:44:53.737Z,201.90
2018-03-03T05:45:53.761Z,196.20
2018-03-03T05:46:53.785Z,198.60
2018-03-03T05:47:53.812Z,205.60
2018-03-03T05:48:53.835Z,226.00
2018-03-03T05:49:53.860Z,215.10
2018-03-03T05:50:53.885Z,232.40
2018-03-03T05:51:53.910Z,221.80
2018-03-03T05:52:53.932Z,204.20
2018-03-03T05:53:53.956Z,209.10
2018-03-03T05:54:53.980Z,197.40
2018-03-03T05:55:54.006Z,219.30
2018-03-03T05:56:54.030Z,197.60
2018-03-03T05:57:54.055Z,203.50
2018-03-03T05:58:54.078Z,202.50
2018-03-03T05:59:54.102Z,198.20
2018-03-03T06:00:54.128Z,194.20
2018-03-03T06:01:54.155Z,179.90
2018-03-03T06:02:54.176Z,178.50
2018-03-03T06:03:54.201Z,179.00
2018-03-03T06:04:54.225Z,187.40
2018-03-03T06:05:54.252Z,176.90
2018-03-03T06:06:54.274Z,199.10
2018-03-03T06:07:54.297Z,189.80
2018-03-03T06:08:54.322Z,196.10
2018-03-03T06:09:54.347Z,188.20
2018-03-03T06:10:54.372Z,197.20
2018-03-03T06:11:54.396Z,194.80
2018-03-03T06:12:54.419Z,188.40
2018-03-03T06:13:54.445Z,204.70
2018-03-03T06:14:54.470Z,190.10
2018-03-03T06:15:54.495Z,192.70
2018-03-03T06:16:54.518Z,199.20
2018-03-03T06:17:54.543Z,199.70
2018-03-03T06:18:54.567Z,189.20
2018-03-03T06:19:54.592Z,177.40
2018-03-03T06:20:54.617Z,184.90
2018-03-03T06:21:54.640Z,182.30
2018-03-03T06:22:54.666Z,182.40
2018-03-03T06:23:54.690Z,192.40
2018-03-03T06:24:54.715Z,186.10
2018-03-03T06:25:54.737Z,194.00
2018-03-03T06:26:54.764Z,192.00
2018-03-03T06:27:54.787Z,177.90
2018-03-03T06:28:54.817Z,175.60
2018-03-03T06:29:54.837Z,183.80
2018-03-03T06:30:54.863Z,188.40
2018-03-03T06:31:54.885Z,168.40
2018-03-03T06:32:54.909Z,176.50
2018-03-03T06:33:54.935Z,170.30
2018-03-03T06:34:54.960Z,211.40
2018-03-03T06:35:54.985Z,252.70
2018-03-03T06:36:55.009Z,212.70
2018-03-03T06:37:55.033Z,249.20
2018-03-03T06:38:55.059Z,243.00
2018-03-03T06:39:55.082Z,234.10
2018-03-03T06:40:55.107Z,243.10
2018-03-03T06:41:55.132Z,341.70
2018-03-03T06:42:55.155Z,452.90
2018-03-03T06:43:55.181Z,448.90
2018-03-03T06:44:55.204Z,423.20
2018-03-03T06:45:55.231Z,338.00
2018-03-03T06:46:55.260Z,357.20
2018-03-03T06:47:55.280Z,224.60
2018-03-03T06:48:55.310Z,204.20
2018-03-03T06:49:55.329Z,206.50
2018-03-03T06:50:55.354Z,181.00
2018-03-03T06:51:55.385Z,235.10
2018-03-03T06:52:55.403Z,238.40
2018-03-03T06:53:55.426Z,196.40
2018-03-03T06:54:55.452Z,220.00
2018-03-03T06:55:55.477Z,272.90
2018-03-03T06:56:55.501Z,304.20
2018-03-03T06:57:55.526Z,270.80
2018-03-03T06:58:55.551Z,235.00
2018-03-03T06:59:55.576Z,234.60
2018-03-03T07:00:55.599Z,190.30
2018-03-03T07:01:55.624Z,223.70
2018-03-03T07:02:55.650Z,237.20
2018-03-03T07:03:55.674Z,152.70
2018-03-03T07:04:55.700Z,183.40
2018-03-03T07:05:55.723Z,194.00
2018-03-03T07:06:55.748Z,225.70
2018-03-03T07:07:55.774Z,192.50
2018-03-03T07:08:55.798Z,230.30
2018-03-03T07:09:55.822Z,211.60
2018-03-03T07:10:55.847Z,211.20
2018-03-03T07:11:55.874Z,216.60
2018-03-03T07:12:55.896Z,222.70
2018-03-03T07:13:55.921Z,259.00
2018-03-03T07:14:55.947Z,199.20
2018-03-03T07:15:55.975Z,212.60
2018-03-03T07:16:55.994Z,261.90
2018-03-03T07:17:56.020Z,345.30
2018-03-03T07:18:56.045Z,337.50
2018-03-03T07:19:56.070Z,324.70
2018-03-03T07:20:56.095Z,322.50
2018-03-03T07:21:56.119Z,307.30
2018-03-03T07:22:56.144Z,418.10
2018-03-03T07:23:56.169Z,363.20
2018-03-03T07:24:56.193Z,281.10
2018-03-03T07:25:56.217Z,287.70
2018-03-03T07:26:56.248Z,352.90
2018-03-03T07:27:56.269Z,362.10
2018-03-03T07:28:56.292Z,433.40
2018-03-03T07:29:56.318Z,370.90
2018-03-03T07:30:56.343Z,281.00
2018-03-03T07:31:56.367Z,288.20
2018-03-03T07:32:56.391Z,351.10
2018-03-03T07:33:56.417Z,358.70
2018-03-03T07:34:56.442Z,360.90
2018-03-03T07:35:56.471Z,317.40
2018-03-03T07:36:56.491Z,357.30
2018-03-03T07:37:56.515Z,355.50
2018-03-03T07:38:56.540Z,371.90
2018-03-03T07:39:56.565Z,353.00
2018-03-03T07:40:56.591Z,350.10
2018-03-03T07:41:56.614Z,389.00
2018-03-03T07:42:56.641Z,443.80
2018-03-03T07:44:29.871Z,331.00
2018-03-03T07:44:56.688Z,329.60
2018-03-03T07:45:56.711Z,347.10
2018-03-03T07:46:56.737Z,272.60
2018-03-03T07:47:56.762Z,328.60
2018-03-03T07:48:56.790Z,229.80
2018-03-03T07:49:56.812Z,250.90
2018-03-03T07:50:56.836Z,239.40
2018-03-03T07:51:56.861Z,225.20
2018-03-03T07:52:56.884Z,239.10
2018-03-03T07:53:56.910Z,239.80
2018-03-03T07:54:56.936Z,215.90
2018-03-03T07:55:56.960Z,281.90
2018-03-03T07:56:56.984Z,315.20
2018-03-03T07:57:57.009Z,223.50
2018-03-03T07:58:57.038Z,217.10
2018-03-03T07:59:57.059Z,241.50
2018-03-03T08:00:57.083Z,236.90
2018-03-03T08:01:57.108Z,199.40
2018-03-03T08:02:57.133Z,216.10
2018-03-03T08:03:57.158Z,230.20
2018-03-03T08:04:57.183Z,182.00
2018-03-03T08:05:57.208Z,174.60
2018-03-03T08:06:57.234Z,184.40
2018-03-03T08:07:57.259Z,183.30
2018-03-03T08:08:57.283Z,233.80
2018-03-03T08:09:57.308Z,201.10
2018-03-03T08:10:57.334Z,225.50
2018-03-03T08:11:57.359Z,205.40
2018-03-03T08:12:57.384Z,202.40
2018-03-03T08:13:57.410Z,189.80
2018-03-03T08:14:57.434Z,242.90
2018-03-03T08:15:57.460Z,239.10
2018-03-03T08:16:57.483Z,201.20
2018-03-03T08:17:57.509Z,240.40
2018-03-03T08:18:57.536Z,251.60
2018-03-03T08:19:57.558Z,266.50
2018-03-03T08:20:57.587Z,230.50
2018-03-03T08:21:57.609Z,219.30
2018-03-03T08:22:57.633Z,184.50
2018-03-03T08:23:57.659Z,299.70
2018-03-03T08:24:57.683Z,237.70
2018-03-03T08:25:57.710Z,214.60
2018-03-03T08:26:57.733Z,198.20
2018-03-03T08:27:57.759Z,220.90
2018-03-03T08:28:57.784Z,260.90
2018-03-03T08:29:57.809Z,246.10
2018-03-03T08:30:57.835Z,234.70
2018-03-03T08:31:57.860Z,221.70
2018-03-03T08:32:57.884Z,239.20
2018-03-03T08:33:57.911Z,235.20
2018-03-03T08:34:57.936Z,236.00
2018-03-03T08:35:57.962Z,192.00
2018-03-03T08:36:57.986Z,184.10
2018-03-03T08:37:58.012Z,167.30
2018-03-03T08:38:58.037Z,180.30
2018-03-03T08:39:58.063Z,156.50
2018-03-03T08:40:58.089Z,161.90
2018-03-03T08:41:58.113Z,184.60
2018-03-03T08:42:58.139Z,173.50
2018-03-03T08:43:58.222Z,171.30
2018-03-03T08:44:58.189Z,151.20
2018-03-03T08:45:58.215Z,165.90
2018-03-03T08:46:58.242Z,152.30
2018-03-03T08:47:58.269Z,146.20
2018-03-03T08:48:58.292Z,156.90
2018-03-03T08:49:58.319Z,160.40
2018-03-03T08:50:58.345Z,148.90
2018-03-03T08:51:58.372Z,153.50
2018-03-03T08:52:58.416Z,149.30
2018-03-03T08:53:58.426Z,142.20
2018-03-03T08:54:58.450Z,141.60
2018-03-03T08:55:58.476Z,144.40
2018-03-03T08:56:58.502Z,140.50
2018-03-03T08:57:58.531Z,129.90
2018-03-03T08:58:58.555Z,125.70
2018-03-03T08:59:58.583Z,119.60
2018-03-03T09:00:58.609Z,121.30
2018-03-03T09:01:58.636Z,104.90
2018-03-03T09:02:58.671Z,122.50
2018-03-03T09:03:58.689Z,123.60
2018-03-03T09:04:58.720Z,114.40
2018-03-03T09:05:58.743Z,103.80
2018-03-03T09:06:58.770Z,109.00
2018-03-03T09:07:58.798Z,117.00
2018-03-03T09:08:58.823Z,104.90
2018-03-03T09:09:58.851Z,110.90
2018-03-03T09:10:58.879Z,116.10
2018-03-03T09:11:58.906Z,109.20
2018-03-03T09:12:58.932Z,106.70
2018-03-03T09:13:58.964Z,108.70
2018-03-03T09:14:58.986Z,110.40
2018-03-03T09:15:59.014Z,106.70
2018-03-03T09:16:59.040Z,111.10
2018-03-03T09:17:59.067Z,120.70
2018-03-03T09:18:59.095Z,115.80
2018-03-03T09:19:59.121Z,114.20
2018-03-03T09:20:59.148Z,110.40
2018-03-03T09:21:59.177Z,120.20
2018-03-03T09:22:59.203Z,118.00
2018-03-03T09:23:59.230Z,110.80
2018-03-03T09:24:59.255Z,114.50
2018-03-03T09:25:59.283Z,125.60
2018-03-03T09:26:59.315Z,123.60
2018-03-03T09:27:59.338Z,116.60
2018-03-03T09:28:59.368Z,120.40
2018-03-03T09:29:59.393Z,120.30
2018-03-03T09:30:59.421Z,114.20
2018-03-03T09:31:59.447Z,119.70
2018-03-03T09:32:59.473Z,142.80
2018-03-03T09:33:59.502Z,147.80
2018-03-03T09:34:59.529Z,150.70
2018-03-03T09:35:59.556Z,149.60
2018-03-03T09:36:59.581Z,154.10
2018-03-03T09:37:59.609Z,168.30
2018-03-03T09:38:59.639Z,167.80
2018-03-03T09:39:59.664Z,168.50
2018-03-03T09:40:59.691Z,157.60
2018-03-03T09:41:59.717Z,156.50
2018-03-03T09:42:59.744Z,168.40
2018-03-03T09:43:59.772Z,188.00
2018-03-03T09:44:59.797Z,205.80
2018-03-03T09:45:59.825Z,198.20
2018-03-03T09:46:59.854Z,203.10
2018-03-03T09:47:59.879Z,205.90
2018-03-03T09:48:59.905Z,215.10
2018-03-03T09:49:59.931Z,220.40
2018-03-03T09:50:59.959Z,203.60
2018-03-03T09:51:59.989Z,217.10
2018-03-03T09:53:00.012Z,211.90
2018-03-03T09:54:00.039Z,231.90
2018-03-03T09:55:00.066Z,240.60
2018-03-03T09:56:00.093Z,227.70
2018-03-03T09:57:00.119Z,221.40
2018-03-03T09:58:00.146Z,252.90
2018-03-03T09:59:00.171Z,232.10
2018-03-03T10:00:00.199Z,242.10
2018-03-03T10:01:00.224Z,237.60
2018-03-03T10:02:06.293Z,249.20
2018-03-03T10:03:00.277Z,226.00
2018-03-03T10:04:00.304Z,233.10
2018-03-03T10:05:00.330Z,229.00
2018-03-03T10:06:00.356Z,227.10
2018-03-03T10:07:00.382Z,210.00
2018-03-03T10:08:00.408Z,212.40
2018-03-03T10:09:00.436Z,224.30
2018-03-03T10:10:00.466Z,232.40
2018-03-03T10:11:00.489Z,220.00
2018-03-03T10:12:00.515Z,212.40
2018-03-03T10:13:00.541Z,232.40
2018-03-03T10:14:00.569Z,237.80
2018-03-03T10:15:00.596Z,236.90
2018-03-03T10:16:00.623Z,238.60
2018-03-03T10:17:00.649Z,234.00
2018-03-03T10:18:00.676Z,235.30
2018-03-03T10:19:00.702Z,247.80
2018-03-03T10:20:00.729Z,240.20
2018-03-03T10:21:00.755Z,227.60
2018-03-03T10:22:00.784Z,227.50
2018-03-03T10:23:00.811Z,233.80
2018-03-03T10:24:00.837Z,235.70
2018-03-03T10:25:00.868Z,231.90
2018-03-03T10:26:00.895Z,226.30
2018-03-03T10:27:00.919Z,233.30
2018-03-03T10:28:00.948Z,238.60
2018-03-03T10:29:00.972Z,233.30
2018-03-03T10:30:01.006Z,235.70
2018-03-03T10:31:01.029Z,237.90
2018-03-03T10:32:01.056Z,229.50
2018-03-03T10:33:01.142Z,221.90
2018-03-03T10:34:01.111Z,226.60
2018-03-03T10:35:01.138Z,208.40
2018-03-03T10:36:01.167Z,226.40
2018-03-03T10:37:01.194Z,216.50
2018-03-03T10:38:01.221Z,224.50
2018-03-03T10:39:01.286Z,228.40
2018-03-03T10:40:01.276Z,243.30
2018-03-03T10:41:01.304Z,224.50
2018-03-03T10:42:01.331Z,220.00
2018-03-03T10:43:01.360Z,235.50
2018-03-03T10:44:01.388Z,222.50
2018-03-03T10:45:01.415Z,238.90
2018-03-03T10:46:01.442Z,231.20
2018-03-03T10:47:01.470Z,203.50
2018-03-03T10:48:01.495Z,227.00
2018-03-03T10:49:01.523Z,224.90
2018-03-03T10:50:01.550Z,244.70
2018-03-03T10:51:01.577Z,239.70
2018-03-03T10:52:01.605Z,243.20
2018-03-03T10:53:01.631Z,238.90
2018-03-03T10:54:01.662Z,254.60
2018-03-03T10:55:01.687Z,241.50
2018-03-03T10:56:01.713Z,271.40
2018-03-03T10:57:01.743Z,267.80
2018-03-03T10:58:01.766Z,260.70
2018-03-03T10:59:01.793Z,269.10
2018-03-03T11:00:01.821Z,271.40
2018-03-03T11:01:01.847Z,259.40
2018-03-03T11:02:01.875Z,264.60
2018-03-03T11:03:01.902Z,265.90
2018-03-03T11:04:01.948Z,272.30
2018-03-03T11:05:01.955Z,274.90
2018-03-03T11:06:01.981Z,274.10
2018-03-03T11:07:02.009Z,265.30
2018-03-03T11:08:02.035Z,274.10
2018-03-03T11:09:02.061Z,274.00
2018-03-03T11:10:02.089Z,263.70
2018-03-03T11:11:02.117Z,255.10
2018-03-03T11:12:02.142Z,275.10
2018-03-03T11:13:02.168Z,273.20
2018-03-03T11:14:02.195Z,261.50
2018-03-03T11:15:02.224Z,241.70
2018-03-03T11:16:02.252Z,253.60
2018-03-03T11:17:02.331Z,255.30
2018-03-03T11:18:02.303Z,252.20
2018-03-03T11:19:02.330Z,242.50
2018-03-03T11:20:02.358Z,251.10
2018-03-03T11:21:02.383Z,237.60
2018-03-03T11:22:02.410Z,238.00
2018-03-03T11:23:02.438Z,241.60
2018-03-03T11:24:02.466Z,237.50
2018-03-03T11:25:02.492Z,236.10
2018-03-03T11:26:02.517Z,231.60
2018-03-03T11:27:02.545Z,250.30
2018-03-03T11:28:02.573Z,250.10
2018-03-03T11:29:02.599Z,247.40
2018-03-03T11:30:02.627Z,244.70
2018-03-03T11:31:02.652Z,241.10
2018-03-03T11:32:02.681Z,245.10
2018-03-03T11:33:02.706Z,239.20
2018-03-03T11:34:02.736Z,251.40
2018-03-03T11:35:02.761Z,252.50
2018-03-03T11:36:02.787Z,241.40
2018-03-03T11:37:02.814Z,248.20
2018-03-03T11:38:02.840Z,237.50
2018-03-03T11:39:02.867Z,240.00
2018-03-03T11:40:02.893Z,245.20
2018-03-03T11:41:02.919Z,245.50
2018-03-03T11:42:02.944Z,256.20
2018-03-03T11:43:02.972Z,259.10
2018-03-03T11:44:02.999Z,261.30
2018-03-03T11:45:03.024Z,249.70
2018-03-03T11:46:03.051Z,247.30
2018-03-03T11:47:03.077Z,257.70
2018-03-03T11:48:03.104Z,253.80
2018-03-03T11:49:03.129Z,271.50
2018-03-03T11:50:03.155Z,270.30
2018-03-03T11:51:03.181Z,279.00
2018-03-03T11:52:03.208Z,306.30
2018-03-03T11:53:03.293Z,302.50
2018-03-03T11:54:03.259Z,300.10
2018-03-03T11:55:03.285Z,305.20
2018-03-03T11:56:03.334Z,287.40
2018-03-03T11:57:03.356Z,292.60
2018-03-03T11:58:03.386Z,310.10
2018-03-03T11:59:03.406Z,295.50
2018-03-03T12:00:03.430Z,321.00
2018-03-03T12:01:03.440Z,299.70
2018-03-03T12:02:03.465Z,289.40
2018-03-03T12:03:03.492Z,269.10
2018-03-03T12:04:03.518Z,293.60
2018-03-03T12:05:03.550Z,282.00
2018-03-03T12:06:03.569Z,275.20
2018-03-03T12:07:03.598Z,279.80
2018-03-03T12:08:03.621Z,286.50
2018-03-03T12:09:03.648Z,291.20
2018-03-03T12:10:03.676Z,293.60
2018-03-03T12:11:03.700Z,297.50
2018-03-03T12:12:03.726Z,313.50
2018-03-03T12:13:03.749Z,282.70
2018-03-03T12:14:03.775Z,278.30
2018-03-03T12:15:03.801Z,272.70
2018-03-03T12:16:03.827Z,276.00
2018-03-03T12:17:03.854Z,270.30
2018-03-03T12:18:03.878Z,291.10
2018-03-03T12:19:03.906Z,274.10
2018-03-03T12:20:03.933Z,267.50
2018-03-03T12:21:03.957Z,267.60
2018-03-03T12:22:03.987Z,278.20
2018-03-03T12:23:04.008Z,265.00
2018-03-03T12:24:04.035Z,280.40
2018-03-03T12:25:04.061Z,281.30
2018-03-03T12:26:04.114Z,289.10
2018-03-03T12:27:04.139Z,296.20
2018-03-03T12:28:04.140Z,300.00